createdAt,value
2019-02-19T00:00:42.811Z,84.22
2019-02-19T00:03:18.663Z,75.85
2019-02-19T00:05:54.514Z,73.75
2019-02-19T00:08:30.373Z,69.82
2019-02-19T00:11:06.113Z,69.35
2019-02-19T00:13:41.972Z,70.50
2019-02-19T00:16:17.718Z,71.42
2019-02-19T00:18:53.576Z,74.77
2019-02-19T00:21:29.442Z,73.95
2019-02-19T00:24:05.390Z,108.90
2019-02-19T00:26:41.246Z,84.62
2019-02-19T00:29:16.989Z,82.67
2019-02-19T00:31:52.848Z,100.55
2019-02-19T00:34:28.702Z,103.67
2019-02-19T00:37:04.556Z,90.65
2019-02-19T00:39:40.414Z,93.80
2019-02-19T00:42:16.671Z,105.85
2019-02-19T00:44:52.532Z,102.00
2019-02-19T00:47:28.389Z,89.60
2019-02-19T00:50:05.915Z,96.44
2019-02-19T00:52:41.737Z,106.87
2019-02-19T00:55:17.593Z,101.90
2019-02-19T00:57:53.438Z,105.10
2019-02-19T01:00:29.291Z,90.07
2019-02-19T01:03:04.998Z,92.95
2019-02-19T01:05:40.786Z,81.70
2019-02-19T01:08:16.656Z,95.53
2019-02-19T01:10:52.504Z,80.35
2019-02-19T01:13:28.351Z,110.05
2019-02-19T01:16:04.215Z,115.15
2019-02-19T01:18:40.072Z,105.97
2019-02-19T01:21:15.918Z,95.62
2019-02-19T01:23:51.776Z,101.12
2019-02-19T01:26:27.520Z,106.20
2019-02-19T01:29:03.370Z,109.25
2019-02-19T01:31:39.132Z,114.52
2019-02-19T01:34:14.988Z,104.85
2019-02-19T01:36:50.846Z,116.82
2019-02-19T01:39:26.683Z,112.22
2019-02-19T01:42:02.446Z,110.97
2019-02-19T01:44:38.311Z,117.15
2019-02-19T01:47:14.160Z,119.28
2019-02-19T01:49:50.011Z,115.88
2019-02-19T01:52:25.753Z,133.60
2019-02-19T01:55:01.608Z,133.80
2019-02-19T01:57:37.353Z,126.20
2019-02-19T02:00:13.787Z,122.17
2019-02-19T02:02:49.595Z,112.62
2019-02-19T02:05:25.435Z,121.50
2019-02-19T02:08:02.306Z,113.08
2019-02-19T02:10:38.480Z,117.62
2019-02-19T02:13:14.333Z,110.35
2019-02-19T02:15:50.386Z,106.37
2019-02-19T02:18:26.253Z,103.15
2019-02-19T02:21:02.091Z,93.42
2019-02-19T02:23:37.956Z,102.78
2019-02-19T02:26:13.731Z,96.12
2019-02-19T02:28:49.552Z,96.08
2019-02-19T02:31:25.401Z,89.22
2019-02-19T02:34:01.202Z,99.92
2019-02-19T02:36:37.322Z,90.92
2019-02-19T02:39:14.612Z,81.10
2019-02-19T02:41:50.464Z,84.20
2019-02-19T02:44:26.309Z,96.05
2019-02-19T02:47:02.061Z,93.78
2019-02-19T02:49:37.920Z,87.25
2019-02-19T02:52:13.711Z,76.97
2019-02-19T02:54:49.530Z,74.85
2019-02-19T02:57:26.404Z,74.92
2019-02-19T03:00:02.377Z,78.42
2019-02-19T03:02:40.473Z,79.22
2019-02-19T03:05:16.421Z,75.97
2019-02-19T03:07:54.214Z,79.35
2019-02-19T03:10:30.090Z,76.72
2019-02-19T03:13:06.038Z,78.28
2019-02-19T03:15:41.781Z,70.42
2019-02-19T03:18:17.640Z,76.22
2019-02-19T03:20:53.499Z,72.70
2019-02-19T03:23:29.453Z,74.22
2019-02-19T03:26:05.340Z,67.75
2019-02-19T03:28:41.265Z,73.85
2019-02-19T03:31:17.116Z,68.65
2019-02-19T03:33:52.981Z,73.28
2019-02-19T03:36:28.825Z,73.35
2019-02-19T03:39:05.507Z,71.72
2019-02-19T03:41:41.350Z,74.97
2019-02-19T03:44:17.203Z,76.55
2019-02-19T03:46:52.930Z,72.27
2019-02-19T03:49:28.705Z,69.67
2019-02-19T03:52:04.577Z,64.82
2019-02-19T03:54:40.424Z,61.77
2019-02-19T03:57:16.265Z,65.45
2019-02-19T03:59:52.014Z,65.78
2019-02-19T04:02:27.884Z,65.08
2019-02-19T04:05:03.730Z,61.20
2019-02-19T04:07:39.588Z,69.42
2019-02-19T04:10:15.461Z,65.73
2019-02-19T04:12:51.291Z,75.55
2019-02-19T04:15:27.082Z,70.15
2019-02-19T04:18:02.897Z,69.82
2019-02-19T04:20:38.657Z,73.02
2019-02-19T04:23:14.495Z,67.05
2019-02-19T04:25:50.359Z,67.70
2019-02-19T04:28:27.333Z,68.57
2019-02-19T04:31:03.200Z,66.82
2019-02-19T04:33:39.039Z,59.03
2019-02-19T04:36:14.900Z,65.67
2019-02-19T04:38:50.747Z,62.65
2019-02-19T04:41:26.611Z,61.40
2019-02-19T04:44:02.453Z,58.45
2019-02-19T04:46:38.305Z,49.95
2019-02-19T04:49:14.175Z,59.33
2019-02-19T04:51:50.019Z,55.90
2019-02-19T04:54:25.873Z,56.92
2019-02-19T04:57:01.624Z,54.45
2019-02-19T04:59:37.490Z,54.90
2019-02-19T05:02:13.326Z,56.28
2019-02-19T05:04:49.200Z,54.90
2019-02-19T05:07:25.043Z,80.25
2019-02-19T05:10:00.788Z,66.10
2019-02-19T05:12:36.654Z,72.05
2019-02-19T05:15:12.509Z,74.50
2019-02-19T05:17:48.352Z,78.15
2019-02-19T05:20:24.085Z,65.00
2019-02-19T05:23:00.270Z,59.18
2019-02-19T05:25:36.121Z,56.50
2019-02-19T05:28:13.003Z,62.40
2019-02-19T05:30:49.153Z,57.17
2019-02-19T05:33:24.952Z,56.33
2019-02-19T05:36:00.878Z,61.55
2019-02-19T05:38:36.619Z,60.70
2019-02-19T05:41:12.476Z,70.87
2019-02-19T05:43:48.230Z,65.47
2019-02-19T05:46:24.088Z,63.90
2019-02-19T05:48:59.945Z,83.67
2019-02-19T05:51:35.785Z,91.67
2019-02-19T05:54:11.647Z,79.45
2019-02-19T05:56:47.504Z,72.85
2019-02-19T05:59:23.358Z,66.80
2019-02-19T06:01:59.521Z,68.00
2019-02-19T06:04:35.424Z,67.72
2019-02-19T06:07:11.172Z,61.95
2019-02-19T06:09:47.483Z,85.55
2019-02-19T06:12:23.340Z,83.30
2019-02-19T06:14:59.394Z,109.37
2019-02-19T06:17:35.249Z,144.07
2019-02-19T06:20:11.303Z,140.13
2019-02-19T06:22:47.173Z,275.62
2019-02-19T06:25:23.025Z,329.43
2019-02-19T06:27:58.866Z,681.85
2019-02-19T06:30:34.724Z,561.47
2019-02-19T06:33:10.573Z,570.57
2019-02-19T06:35:46.447Z,401.43
2019-02-19T06:38:22.313Z,197.90
2019-02-19T06:40:58.139Z,178.70
2019-02-19T06:43:34.302Z,178.57
2019-02-19T06:46:11.188Z,287.70
2019-02-19T06:48:46.926Z,128.05
2019-02-19T06:51:22.787Z,120.77
2019-02-19T06:53:58.862Z,96.47
2019-02-19T06:56:40.968Z,74.80
2019-02-19T06:59:25.916Z,69.55
2019-02-19T07:02:21.740Z,67.15
2019-02-19T07:04:57.887Z,61.13
2019-02-19T07:07:33.648Z,58.38
2019-02-19T07:10:18.822Z,59.50
2019-02-19T07:12:54.570Z,66.47
2019-02-19T07:15:30.431Z,57.62
2019-02-19T07:18:06.286Z,58.98
2019-02-19T07:20:42.138Z,61.48
2019-02-19T07:23:17.989Z,64.67
2019-02-19T07:25:54.046Z,67.53
2019-02-19T07:28:30.921Z,65.10
2019-02-19T07:31:06.781Z,63.73
2019-02-19T07:33:42.632Z,62.85
2019-02-19T07:36:18.379Z,66.97
2019-02-19T07:38:54.243Z,67.70
2019-02-19T07:41:30.029Z,70.72
2019-02-19T07:44:05.835Z,72.27
2019-02-19T07:46:41.697Z,70.75
2019-02-19T07:49:17.439Z,71.92
2019-02-19T07:51:53.299Z,79.20
2019-02-19T07:54:29.160Z,81.00
2019-02-19T07:57:05.006Z,78.65
2019-02-19T07:59:40.866Z,80.20
2019-02-19T08:02:16.724Z,82.05
2019-02-19T08:04:52.567Z,87.37
2019-02-19T08:07:28.735Z,85.95
2019-02-19T08:10:07.959Z,94.48
2019-02-19T08:12:43.823Z,91.20
2019-02-19T08:15:19.680Z,90.42
2019-02-19T08:17:55.541Z,78.78
2019-02-19T08:20:31.384Z,68.83
2019-02-19T08:23:07.167Z,76.10
2019-02-19T08:25:42.985Z,64.90
2019-02-19T08:28:18.842Z,63.23
2019-02-19T08:30:54.691Z,60.48
2019-02-19T08:33:30.543Z,60.03
2019-02-19T08:36:07.744Z,62.25
2019-02-19T08:38:43.594Z,66.00
2019-02-19T08:41:19.441Z,60.08
2019-02-19T08:43:55.298Z,59.15
2019-02-19T08:46:31.497Z,79.53
2019-02-19T08:49:07.313Z,57.43
2019-02-19T08:51:43.084Z,58.75
2019-02-19T08:54:18.917Z,56.35
2019-02-19T08:56:54.778Z,59.42
2019-02-19T08:59:30.628Z,53.00
2019-02-19T09:02:06.481Z,65.87
2019-02-19T09:04:42.242Z,61.18
2019-02-19T09:07:19.227Z,70.83
2019-02-19T09:09:55.782Z,66.62
2019-02-19T09:12:31.641Z,61.48
2019-02-19T09:15:11.241Z,57.40
2019-02-19T09:17:51.938Z,64.32
2019-02-19T09:20:24.730Z,61.20
2019-02-19T09:23:00.983Z,60.88
2019-02-19T09:25:37.967Z,54.77
2019-02-19T09:28:13.819Z,55.83
2019-02-19T09:30:49.682Z,53.68
2019-02-19T09:33:25.421Z,44.42
2019-02-19T09:36:02.418Z,37.42
2019-02-19T09:38:38.266Z,33.23
2019-02-19T09:41:14.127Z,34.78
2019-02-19T09:43:49.970Z,34.43
2019-02-19T09:46:25.835Z,35.63
2019-02-19T09:49:01.693Z,39.08
2019-02-19T09:51:37.539Z,33.95
2019-02-19T09:54:13.392Z,35.00
2019-02-19T09:56:49.253Z,35.80
2019-02-19T09:59:25.098Z,35.55
2019-02-19T10:02:00.957Z,40.63
2019-02-19T10:04:36.813Z,36.17
2019-02-19T10:07:12.672Z,33.92
2019-02-19T10:09:48.522Z,33.00
2019-02-19T10:12:25.496Z,38.65
2019-02-19T10:15:01.444Z,33.45
2019-02-19T10:17:37.516Z,33.80
2019-02-19T10:20:14.553Z,37.27
2019-02-19T10:22:50.451Z,31.20
2019-02-19T10:25:26.293Z,35.23
2019-02-19T10:28:02.159Z,33.48
2019-02-19T10:30:38.009Z,33.55
2019-02-19T10:33:13.967Z,32.28
2019-02-19T10:35:49.812Z,36.50
2019-02-19T10:38:25.684Z,29.70
2019-02-19T10:41:01.526Z,31.70
2019-02-19T10:43:37.374Z,32.23
2019-02-19T10:46:13.234Z,32.17
2019-02-19T10:48:49.195Z,31.27
2019-02-19T10:51:25.255Z,29.52
2019-02-19T10:54:01.105Z,29.12
2019-02-19T10:56:36.956Z,28.67
2019-02-19T10:59:13.023Z,31.33
2019-02-19T11:01:48.871Z,28.83
2019-02-19T11:04:24.734Z,33.40
2019-02-19T11:07:00.581Z,32.55
2019-02-19T11:09:36.494Z,32.55
2019-02-19T11:12:12.391Z,31.57
2019-02-19T11:14:48.241Z,29.65
2019-02-19T11:17:24.149Z,38.15
2019-02-19T11:19:59.944Z,32.95
2019-02-19T11:22:35.981Z,33.05
2019-02-19T11:25:12.881Z,30.85
2019-02-19T11:27:48.741Z,32.48
2019-02-19T11:30:24.604Z,36.45
2019-02-19T11:33:00.453Z,31.12
2019-02-19T11:35:37.318Z,34.88
2019-02-19T11:38:13.070Z,30.80
2019-02-19T11:40:48.928Z,28.55
2019-02-19T11:43:24.788Z,32.65
2019-02-19T11:46:00.640Z,32.38
2019-02-19T11:48:37.125Z,25.02
2019-02-19T11:51:13.275Z,29.57
2019-02-19T11:53:49.527Z,28.02
2019-02-19T11:56:25.392Z,28.55
2019-02-19T11:59:01.246Z,28.98
2019-02-19T12:01:40.370Z,25.27
2019-02-19T12:04:19.027Z,28.45
2019-02-19T12:06:55.158Z,24.57
2019-02-19T12:09:31.237Z,25.95
2019-02-19T12:12:07.065Z,28.07
2019-02-19T12:14:42.800Z,26.15
2019-02-19T12:17:18.669Z,31.27
2019-02-19T12:19:54.630Z,24.00
2019-02-19T12:22:30.588Z,26.00
2019-02-19T12:25:08.075Z,27.93
2019-02-19T12:27:44.020Z,25.32
2019-02-19T12:30:28.253Z,28.63
2019-02-19T12:33:05.573Z,35.48
2019-02-19T12:35:41.422Z,30.88
2019-02-19T12:38:17.299Z,26.68
2019-02-19T12:40:53.131Z,28.05
2019-02-19T12:43:28.991Z,32.63
2019-02-19T12:46:04.841Z,30.70
2019-02-19T12:48:40.683Z,29.27
2019-02-19T12:51:16.551Z,31.73
2019-02-19T12:53:52.404Z,25.10
2019-02-19T12:56:28.258Z,27.17
2019-02-19T12:59:04.114Z,28.30
2019-02-19T13:01:39.974Z,26.60
2019-02-19T13:04:15.820Z,25.97
2019-02-19T13:06:51.665Z,29.85
2019-02-19T13:09:27.527Z,34.23
2019-02-19T13:12:03.277Z,29.00
2019-02-19T13:14:40.150Z,24.70
2019-02-19T13:17:16.004Z,30.82
2019-02-19T13:19:51.862Z,33.67
2019-02-19T13:22:27.722Z,35.38
2019-02-19T13:25:03.573Z,28.62
2019-02-19T13:27:39.321Z,32.03
2019-02-19T13:30:16.957Z,37.47
2019-02-19T13:32:52.766Z,34.88
2019-02-19T13:35:28.615Z,38.02
2019-02-19T13:38:04.790Z,31.42
2019-02-19T13:40:40.647Z,34.40
2019-02-19T13:43:16.493Z,37.28
2019-02-19T13:45:52.526Z,36.10
2019-02-19T13:48:28.307Z,39.95
2019-02-19T13:51:08.867Z,36.40
2019-02-19T13:53:46.367Z,35.08
2019-02-19T13:56:22.223Z,34.78
2019-02-19T13:58:58.060Z,39.63
2019-02-19T14:01:33.912Z,35.50
2019-02-19T14:04:09.774Z,33.88
2019-02-19T14:06:45.626Z,42.83
2019-02-19T14:09:21.472Z,36.90
2019-02-19T14:11:57.334Z,36.60
2019-02-19T14:14:38.389Z,37.53
2019-02-19T14:17:14.375Z,41.97
2019-02-19T14:19:52.173Z,38.05
2019-02-19T14:22:29.667Z,38.45
2019-02-19T14:25:25.490Z,32.65
2019-02-19T14:28:19.260Z,39.67
2019-02-19T14:31:06.164Z,34.30
2019-02-19T14:33:49.426Z,48.28
2019-02-19T14:36:43.275Z,45.33
2019-02-19T14:39:37.667Z,36.30
2019-02-19T14:42:26.933Z,38.50
2019-02-19T14:45:10.557Z,45.30
2019-02-19T14:47:53.995Z,47.62
2019-02-19T14:50:31.497Z,45.12
2019-02-19T14:53:08.877Z,44.83
2019-02-19T14:55:55.594Z,53.92
2019-02-19T14:58:48.135Z,45.45
2019-02-19T15:01:44.876Z,36.75
2019-02-19T15:04:22.272Z,42.80
2019-02-19T15:07:02.415Z,39.00
2019-02-19T15:09:39.812Z,38.25
2019-02-19T15:12:20.989Z,37.65
2019-02-19T15:15:01.141Z,39.05
2019-02-19T15:17:39.766Z,37.85
2019-02-19T15:20:19.930Z,38.15
2019-02-19T15:23:00.071Z,35.35
2019-02-19T15:25:46.878Z,36.50
2019-02-19T15:28:42.503Z,44.93
2019-02-19T15:31:19.886Z,49.65
2019-02-19T15:34:15.816Z,76.85
2019-02-19T15:36:59.460Z,54.20
2019-02-19T15:39:52.821Z,49.95
2019-02-19T15:42:36.243Z,65.95
2019-02-19T15:45:16.918Z,44.27
2019-02-19T15:48:00.156Z,44.67
2019-02-19T15:50:55.965Z,48.65
2019-02-19T15:53:39.702Z,52.98
2019-02-19T15:56:33.267Z,50.95
2019-02-19T15:59:22.950Z,41.20
2019-02-19T16:02:00.452Z,46.50
2019-02-19T16:04:56.059Z,46.55
2019-02-19T16:07:36.110Z,47.95
2019-02-19T16:10:28.753Z,54.38
2019-02-19T16:13:07.283Z,60.05
2019-02-19T16:16:01.479Z,50.33
2019-02-19T16:18:46.622Z,64.50
2019-02-19T16:21:40.836Z,55.73
2019-02-19T16:24:26.397Z,56.08
2019-02-19T16:27:04.203Z,56.90
2019-02-19T16:29:46.407Z,285.48
2019-02-19T16:32:41.397Z,103.85
2019-02-19T16:35:28.601Z,150.78
2019-02-19T16:38:06.740Z,57.78
2019-02-19T16:40:47.197Z,55.05
2019-02-19T16:43:24.683Z,54.05
2019-02-19T16:46:02.081Z,56.73
2019-02-19T16:48:56.484Z,80.28
2019-02-19T16:51:45.680Z,111.72
2019-02-19T16:54:23.050Z,78.45
2019-02-19T16:57:00.420Z,66.65
2019-02-19T16:59:54.074Z,68.87
2019-02-19T17:02:34.200Z,65.92
2019-02-19T17:05:23.573Z,63.40
2019-02-19T17:08:00.953Z,59.00
2019-02-19T17:10:38.883Z,64.10
2019-02-19T17:13:16.292Z,86.22
2019-02-19T17:15:59.490Z,114.35
2019-02-19T17:18:48.773Z,125.78
2019-02-19T17:21:41.959Z,116.22
2019-02-19T17:24:20.351Z,75.08
2019-02-19T17:27:09.800Z,58.42
2019-02-19T17:29:47.174Z,53.83
2019-02-19T17:32:30.189Z,59.48
2019-02-19T17:35:08.792Z,49.65
2019-02-19T17:37:55.373Z,47.17
2019-02-19T17:40:35.524Z,52.05
2019-02-19T17:43:15.979Z,48.85
2019-02-19T17:45:59.415Z,74.67
2019-02-19T17:48:51.849Z,100.92
2019-02-19T17:51:32.119Z,119.65
2019-02-19T17:54:15.344Z,107.60
2019-02-19T17:56:55.794Z,101.07
2019-02-19T17:59:39.568Z,74.45
2019-02-19T18:02:16.933Z,67.72
2019-02-19T18:04:54.312Z,63.00
2019-02-19T18:07:46.772Z,48.05
2019-02-19T18:10:27.022Z,50.60
2019-02-19T18:13:16.480Z,56.53
2019-02-19T18:15:53.853Z,53.90
2019-02-19T18:18:31.136Z,50.63
2019-02-19T18:21:07.247Z,54.10
2019-02-19T18:23:42.956Z,46.92
2019-02-19T18:26:18.696Z,41.77
2019-02-19T18:28:54.470Z,42.85
2019-02-19T18:31:30.243Z,42.48
2019-02-19T18:34:06.005Z,44.13
2019-02-19T18:36:41.803Z,48.90
2019-02-19T18:39:17.628Z,44.58
2019-02-19T18:41:53.396Z,45.63
2019-02-19T18:44:29.169Z,37.95
2019-02-19T18:47:04.928Z,29.42
2019-02-19T18:49:40.846Z,32.88
2019-02-19T18:52:16.595Z,24.92
2019-02-19T18:54:52.943Z,24.37
2019-02-19T18:57:28.718Z,26.40
2019-02-19T19:00:07.005Z,20.02
2019-02-19T19:02:42.932Z,20.35
2019-02-19T19:05:18.685Z,23.10
2019-02-19T19:07:54.458Z,21.07
2019-02-19T19:10:30.218Z,22.87
2019-02-19T19:13:05.985Z,21.07
2019-02-19T19:15:41.781Z,27.10
2019-02-19T19:18:19.229Z,20.77
2019-02-19T19:20:55.202Z,29.92
2019-02-19T19:23:30.961Z,31.85
2019-02-19T19:26:06.745Z,32.28
2019-02-19T19:28:42.524Z,23.10
2019-02-19T19:31:18.287Z,27.65
2019-02-19T19:33:54.029Z,27.55
2019-02-19T19:36:29.758Z,22.80
2019-02-19T19:39:06.299Z,26.42
2019-02-19T19:41:43.630Z,18.37
2019-02-19T19:44:19.381Z,21.77
2019-02-19T19:46:55.187Z,24.70
2019-02-19T19:49:30.916Z,34.20
2019-02-19T19:52:06.921Z,30.80
2019-02-19T19:54:42.674Z,20.32
2019-02-19T19:57:18.426Z,22.62
2019-02-19T19:59:54.198Z,23.32
2019-02-19T20:02:29.987Z,27.37
2019-02-19T20:05:08.403Z,28.50
2019-02-19T20:07:44.287Z,34.58
2019-02-19T20:10:20.188Z,34.37
2019-02-19T20:12:56.002Z,37.75
2019-02-19T20:15:31.782Z,38.60
2019-02-19T20:18:07.568Z,34.55
2019-02-19T20:20:43.331Z,35.55
2019-02-19T20:23:19.082Z,43.23
2019-02-19T20:25:54.840Z,46.13
2019-02-19T20:28:30.628Z,54.93
2019-02-19T20:31:06.390Z,49.27
2019-02-19T20:33:42.176Z,64.30
2019-02-19T20:36:18.137Z,55.80
2019-02-19T20:38:53.885Z,72.05
2019-02-19T20:41:29.691Z,63.73
2019-02-19T20:44:05.504Z,68.07
2019-02-19T20:46:41.378Z,47.05
2019-02-19T20:49:17.270Z,44.93
2019-02-19T20:51:53.678Z,40.38
2019-02-19T20:54:30.071Z,42.23
2019-02-19T20:57:06.330Z,45.38
2019-02-19T20:59:42.182Z,40.03
2019-02-19T21:02:18.036Z,44.80
2019-02-19T21:04:53.934Z,48.15
2019-02-19T21:07:29.730Z,48.92
2019-02-19T21:10:16.529Z,51.83
2019-02-19T21:12:52.337Z,47.65
2019-02-19T21:15:28.336Z,38.42
2019-02-19T21:18:04.127Z,37.05
2019-02-19T21:20:40.203Z,36.17
2019-02-19T21:23:16.568Z,35.63
2019-02-19T21:25:52.513Z,37.50
2019-02-19T21:28:28.577Z,43.08
2019-02-19T21:31:04.538Z,39.90
2019-02-19T21:33:40.391Z,39.20
2019-02-19T21:36:16.240Z,42.27
2019-02-19T21:38:52.556Z,38.50
2019-02-19T21:41:28.462Z,45.43
2019-02-19T21:44:04.315Z,44.93
2019-02-19T21:46:41.254Z,43.05
2019-02-19T21:49:17.142Z,44.90
2019-02-19T21:51:54.369Z,54.63
2019-02-19T21:54:30.289Z,59.85
2019-02-19T21:57:06.080Z,56.77
2019-02-19T21:59:42.114Z,62.48
2019-02-19T22:02:17.959Z,49.80
2019-02-19T22:04:54.024Z,45.28
2019-02-19T22:07:29.869Z,45.92
2019-02-19T22:10:08.793Z,47.95
2019-02-19T22:12:44.744Z,49.93
2019-02-19T22:15:20.626Z,54.45
2019-02-19T22:17:56.461Z,50.60
2019-02-19T22:20:36.816Z,55.73
2019-02-19T22:23:12.664Z,48.78
2019-02-19T22:25:49.591Z,53.73
2019-02-19T22:28:25.866Z,45.55
2019-02-19T22:31:01.676Z,43.58
2019-02-19T22:33:38.646Z,44.30
2019-02-19T22:36:14.503Z,42.60
2019-02-19T22:38:50.275Z,39.53
2019-02-19T22:41:25.999Z,41.13
2019-02-19T22:44:01.987Z,47.27
2019-02-19T22:46:37.824Z,48.83
2019-02-19T22:49:14.689Z,46.25
2019-02-19T22:51:50.540Z,51.18
2019-02-19T22:54:27.949Z,52.35
2019-02-19T22:57:04.816Z,57.67
2019-02-19T22:59:40.671Z,56.37
2019-02-19T23:02:16.636Z,45.08
2019-02-19T23:04:52.778Z,51.53
2019-02-19T23:07:28.640Z,49.73
2019-02-19T23:10:05.769Z,48.75
2019-02-19T23:12:41.570Z,47.20
2019-02-19T23:15:17.436Z,49.48
2019-02-19T23:17:53.380Z,49.98
2019-02-19T23:20:29.235Z,50.40
2019-02-19T23:23:05.309Z,48.85
2019-02-19T23:25:41.156Z,54.83
2019-02-19T23:28:17.819Z,55.15
2019-02-19T23:30:53.570Z,52.20
2019-02-19T23:33:29.447Z,53.55
2019-02-19T23:36:12.666Z,68.25
2019-02-19T23:38:48.524Z,83.67
2019-02-19T23:41:24.374Z,89.90
2019-02-19T23:44:00.215Z,75.50
2019-02-19T23:46:37.112Z,67.12
2019-02-19T23:49:12.841Z,72.00
2019-02-19T23:51:48.907Z,70.00
2019-02-19T23:54:24.764Z,68.07
2019-02-19T23:57:00.627Z,64.03
2019-02-19T23:59:36.472Z,60.98
